Home > Products > Valid Products > TAF

000
FTUS44 KHUN 282346
TAFMSL
TAF
KMSL 282346Z 2900/2924 14005KT P6SM VCTS BKN050CB OVC090
     FM290300 14005KT P6SM SCT008 BKN070
     FM291300 16007KT P6SM BKN025 BKN090=



000
FTUS44 KHUN 282346
TAFHSV
TAF
KHSV 282346Z 2900/2924 14005KT P6SM VCTS BKN050CB OVC090
      TEMPO 2900/2902 4SM -RA BR BKN025
     FM290300 14005KT P6SM SCT008 BKN070
     FM291300 16007KT P6SM BKN025 BKN090=



000
FTUS44 KHUN 282346
TAFHSV
TAF
KHSV 282346Z 2900/2924 14005KT P6SM VCTS BKN050CB OVC090
      TEMPO 2900/2902 4SM -RA BR BKN025
     FM290300 14005KT P6SM SCT008 BKN070
     FM291300 16007KT P6SM BKN025 BKN090=



000
FTUS44 KHUN 282346
TAFMSL
TAF
KMSL 282346Z 2900/2924 14005KT P6SM VCTS BKN050CB OVC090
     FM290300 14005KT P6SM SCT008 BKN070
     FM291300 16007KT P6SM BKN025 BKN090=



000
FTUS44 KHUN 281720
TAFMSL
TAF
KMSL 281720Z 2818/2918 16005KT P6SM BKN015
     FM282000 17010KT P6SM BKN040
      TEMPO 2820/2824 5SM -TSRA BR BKN040CB
     FM290000 13005KT P6SM BKN050
     FM290600 VRB03KT P6SM OVC025=



000
FTUS44 KHUN 281720
TAFHSV
TAF
KHSV 281720Z 2818/2918 15005KT P6SM SCT015 BKN025
     FM282000 16010KT P6SM BKN040
      TEMPO 2821/2901 5SM -TSRA BR BKN040CB
     FM290100 12005KT P6SM BKN050
     FM290700 VRB03KT P6SM OVC025=



000
FTUS44 KHUN 281720
TAFHSV
TAF
KHSV 281720Z 2818/2918 15005KT P6SM SCT015 BKN025
     FM282000 16010KT P6SM BKN040
      TEMPO 2821/2901 5SM -TSRA BR BKN040CB
     FM290100 12005KT P6SM BKN050
     FM290700 VRB03KT P6SM OVC025=



000
FTUS44 KHUN 281720
TAFMSL
TAF
KMSL 281720Z 2818/2918 16005KT P6SM BKN015
     FM282000 17010KT P6SM BKN040
      TEMPO 2820/2824 5SM -TSRA BR BKN040CB
     FM290000 13005KT P6SM BKN050
     FM290600 VRB03KT P6SM OVC025=



000
FTUS44 KHUN 281449 AAA
TAFHSV
TAF AMD
KHSV 281449Z 2815/2912 15005KT P6SM SCT010 BKN025
     FM282000 16010KT P6SM BKN040
      TEMPO 2821/2901 5SM -TSRA BR BKN030CB
     FM290100 12005KT P6SM BKN050
     FM290700 VRB03KT P6SM OVC030=



000
FTUS44 KHUN 281449 AAA
TAFHSV
TAF AMD
KHSV 281449Z 2815/2912 15005KT P6SM SCT010 BKN025
     FM282000 16010KT P6SM BKN040
      TEMPO 2821/2901 5SM -TSRA BR BKN030CB
     FM290100 12005KT P6SM BKN050
     FM290700 VRB03KT P6SM OVC030=



000
FTUS44 KHUN 281124
TAFHSV
TAF
KHSV 281124Z 2812/2912 VRB03KT P6SM VCSH SCT090 BKN120
     FM281500 15005KT P6SM BKN005
     FM281700 16005KT P6SM BKN015
     FM282000 16010KT P6SM BKN040
      TEMPO 2821/2901 5SM -TSRA BR BKN030CB
     FM290100 12005KT P6SM BKN050
     FM290700 VRB03KT P6SM OVC030=



000
FTUS44 KHUN 281124
TAFMSL
TAF
KMSL 281124Z 2812/2912 VRB03KT P6SM SCT005 BKN120
      TEMPO 2812/2815 BKN005
     FM281500 16005KT P6SM BKN015
     FM282000 17010KT P6SM BKN040
      TEMPO 2820/2824 5SM -TSRA BR BKN030CB
     FM290000 13005KT P6SM BKN050
     FM290600 VRB03KT P6SM OVC030=



000
FTUS44 KHUN 281124
TAFMSL
TAF
KMSL 281124Z 2812/2912 VRB03KT P6SM SCT005 BKN120
      TEMPO 2812/2815 BKN005
     FM281500 16005KT P6SM BKN015
     FM282000 17010KT P6SM BKN040
      TEMPO 2820/2824 5SM -TSRA BR BKN030CB
     FM290000 13005KT P6SM BKN050
     FM290600 VRB03KT P6SM OVC030=



000
FTUS44 KHUN 281124
TAFHSV
TAF
KHSV 281124Z 2812/2912 VRB03KT P6SM VCSH SCT090 BKN120
     FM281500 15005KT P6SM BKN005
     FM281700 16005KT P6SM BKN015
     FM282000 16010KT P6SM BKN040
      TEMPO 2821/2901 5SM -TSRA BR BKN030CB
     FM290100 12005KT P6SM BKN050
     FM290700 VRB03KT P6SM OVC030=



000
FTUS44 KHUN 281024 CCB
TAFMSL
TAF COR
KMSL 281024Z 2810/2906 00000KT P6SM SCT003 BKN120
      TEMPO 2810/2814 5SM BR BKN003
     FM281400 12006KT P6SM VCTS BKN025CB BKN110 OVC200
     FM290200 12003KT 5SM BR SCT008 BKN015 OVC025=



000
FTUS44 KHUN 281024 CCB
TAFMSL
TAF COR
KMSL 281024Z 2810/2906 00000KT P6SM SCT003 BKN120
      TEMPO 2810/2814 5SM BR BKN003
     FM281400 12006KT P6SM VCTS BKN025CB BKN110 OVC200
     FM290200 12003KT 5SM BR SCT008 BKN015 OVC025=



000
FTUS44 KHUN 281023 AAC
TAFMSL
TAF AMD
KMSL 281023Z 2810/2906 00000KT P6SM SCT003 BKN120
      TEMPO 2810/2814 5SM BR BKN006
     FM281400 12006KT P6SM VCTS BKN025CB BKN110 OVC200
     FM290200 12003KT 5SM BR SCT008 BKN015 OVC025=



000
FTUS44 KHUN 281023 AAC
TAFMSL
TAF AMD
KMSL 281023Z 2810/2906 00000KT P6SM SCT003 BKN120
      TEMPO 2810/2814 5SM BR BKN006
     FM281400 12006KT P6SM VCTS BKN025CB BKN110 OVC200
     FM290200 12003KT 5SM BR SCT008 BKN015 OVC025=



000
FTUS44 KHUN 281022 AAB
TAFHSV
TAF AMD
KHSV 281022Z 2810/2906 00000KT P6SM VCSH SCT010 BKN110
     FM281400 12006KT P6SM VCSH BKN030 BKN110
      TEMPO 2820/2824 5SM -TSRA BR BKN030CB
     FM290200 12003KT 5SM BR SCT008 BKN015 OVC025=



000
FTUS44 KHUN 281022 AAB
TAFHSV
TAF AMD
KHSV 281022Z 2810/2906 00000KT P6SM VCSH SCT010 BKN110
     FM281400 12006KT P6SM VCSH BKN030 BKN110
      TEMPO 2820/2824 5SM -TSRA BR BKN030CB
     FM290200 12003KT 5SM BR SCT008 BKN015 OVC025=



000
FTUS44 KHUN 281022 AAB
TAFHSV
TAF AMD
KHSV 281022Z 2810/2906 00000KT P6SM VCSH SCT010 BKN110
     FM281400 12006KT P6SM VCSH BKN030 BKN110
      TEMPO 2820/2824 5SM -TSRA BR BKN030CB
     FM290200 12003KT 5SM BR SCT008 BKN015 OVC025=



000
FTUS44 KHUN 281022 AAB
TAFHSV
TAF AMD
KHSV 281022Z 2810/2906 00000KT P6SM VCSH SCT010 BKN110
     FM281400 12006KT P6SM VCSH BKN030 BKN110
      TEMPO 2820/2824 5SM -TSRA BR BKN030CB
     FM290200 12003KT 5SM BR SCT008 BKN015 OVC025=



000
FTUS44 KHUN 280922 AAB
TAFMSL
TAF AMD
KMSL 280922Z 2809/2906 00000KT P6SM BKN006
      TEMPO 2809/2811 SCT006
     FM281400 12006KT P6SM VCTS BKN025CB BKN110 OVC200
     FM290200 12003KT 5SM BR SCT008 BKN015 OVC025=



000
FTUS44 KHUN 280922 AAB
TAFMSL
TAF AMD
KMSL 280922Z 2809/2906 00000KT P6SM BKN006
      TEMPO 2809/2811 SCT006
     FM281400 12006KT P6SM VCTS BKN025CB BKN110 OVC200
     FM290200 12003KT 5SM BR SCT008 BKN015 OVC025=



000
FTUS44 KHUN 280734 AAA
TAFHSV
TAF AMD
KHSV 280734Z 2808/2906 00000KT P6SM SCT008 BKN110
      TEMPO 2811/2814 3SM BR BKN008
     FM281400 12006KT P6SM VCTS BKN025CB BKN110 OVC200
     FM290200 12003KT 5SM BR SCT008 BKN015 OVC025=



000
FTUS44 KHUN 280734 AAA
TAFHSV
TAF AMD
KHSV 280734Z 2808/2906 00000KT P6SM SCT008 BKN110
      TEMPO 2811/2814 3SM BR BKN008
     FM281400 12006KT P6SM VCTS BKN025CB BKN110 OVC200
     FM290200 12003KT 5SM BR SCT008 BKN015 OVC025=



000
FTUS44 KHUN 280734 AAA
TAFHSV
TAF AMD
KHSV 280734Z 2808/2906 00000KT P6SM SCT008 BKN110
      TEMPO 2811/2814 3SM BR BKN008
     FM281400 12006KT P6SM VCTS BKN025CB BKN110 OVC200
     FM290200 12003KT 5SM BR SCT008 BKN015 OVC025=



000
FTUS44 KHUN 280734 AAA
TAFHSV
TAF AMD
KHSV 280734Z 2808/2906 00000KT P6SM SCT008 BKN110
      TEMPO 2811/2814 3SM BR BKN008
     FM281400 12006KT P6SM VCTS BKN025CB BKN110 OVC200
     FM290200 12003KT 5SM BR SCT008 BKN015 OVC025=



000
FTUS44 KHUN 280732 CCA
TAFMSL
TAF COR
KMSL 280732Z 2808/2906 00000KT P6SM BKN006
      TEMPO 2811/2814 3SM BR BKN006
     FM281400 12006KT P6SM VCTS BKN025CB BKN110 OVC200
     FM290200 12003KT 5SM BR SCT008 BKN015 OVC025=



000
FTUS44 KHUN 280732 CCA
TAFMSL
TAF COR
KMSL 280732Z 2808/2906 00000KT P6SM BKN006
      TEMPO 2811/2814 3SM BR BKN006
     FM281400 12006KT P6SM VCTS BKN025CB BKN110 OVC200
     FM290200 12003KT 5SM BR SCT008 BKN015 OVC025=



000
FTUS44 KHUN 280732 CCA
TAFMSL
TAF COR
KMSL 280732Z 2808/2906 00000KT P6SM BKN006
      TEMPO 2811/2814 3SM BR BKN006
     FM281400 12006KT P6SM VCTS BKN025CB BKN110 OVC200
     FM290200 12003KT 5SM BR SCT008 BKN015 OVC025=



000
FTUS44 KHUN 280731 AAA
TAFMSL
TAF AMD
KMSL 280731Z 2808/2906 10006KT P6SM BKN006
      TEMPO 2811/2814 3SM BR BKN006
     FM281400 12006KT P6SM VCTS BKN025CB BKN110 OVC200
     FM290200 12003KT 5SM BR SCT008 BKN015 OVC025=



000
FTUS44 KHUN 280731 AAA
TAFMSL
TAF AMD
KMSL 280731Z 2808/2906 10006KT P6SM BKN006
      TEMPO 2811/2814 3SM BR BKN006
     FM281400 12006KT P6SM VCTS BKN025CB BKN110 OVC200
     FM290200 12003KT 5SM BR SCT008 BKN015 OVC025=



000
FTUS44 KHUN 280731 AAA
TAFMSL
TAF AMD
KMSL 280731Z 2808/2906 10006KT P6SM BKN006
      TEMPO 2811/2814 3SM BR BKN006
     FM281400 12006KT P6SM VCTS BKN025CB BKN110 OVC200
     FM290200 12003KT 5SM BR SCT008 BKN015 OVC025=



000
FTUS44 KHUN 280520
TAFHSV
TAF
KHSV 280520Z 2806/2906 10006KT P6SM VCSH SCT008 BKN110
     FM280800 VRB03KT 2SM BR OVC008
     FM281400 12006KT P6SM VCTS BKN025CB BKN110 OVC200
     FM290200 12003KT 5SM BR SCT008 BKN015 OVC025=



000
FTUS44 KHUN 280520
TAFMSL
TAF
KMSL 280520Z 2806/2906 10006KT P6SM VCSH SCT008 BKN110
     FM280800 VRB03KT 2SM BR OVC008
     FM281400 12006KT P6SM VCTS BKN025CB BKN110 OVC200
     FM290200 12003KT 5SM BR SCT008 BKN015 OVC025=



000
FTUS44 KHUN 280520
TAFHSV
TAF
KHSV 280520Z 2806/2906 10006KT P6SM VCSH SCT008 BKN110
     FM280800 VRB03KT 2SM BR OVC008
     FM281400 12006KT P6SM VCTS BKN025CB BKN110 OVC200
     FM290200 12003KT 5SM BR SCT008 BKN015 OVC025=



000
FTUS44 KHUN 280520
TAFMSL
TAF
KMSL 280520Z 2806/2906 10006KT P6SM VCSH SCT008 BKN110
     FM280800 VRB03KT 2SM BR OVC008
     FM281400 12006KT P6SM VCTS BKN025CB BKN110 OVC200
     FM290200 12003KT 5SM BR SCT008 BKN015 OVC025=



000
FTUS44 KHUN 280248 AAA
TAFMSL
TAF AMD
KMSL 280248Z 2803/2824 12006KT 6SM RA BR VCTS SCT035CB BKN080
      OVC120
     FM280500 12005KT P6SM BKN035 OVC050=



000
FTUS44 KHUN 280248 AAA
TAFMSL
TAF AMD
KMSL 280248Z 2803/2824 12006KT 6SM RA BR VCTS SCT035CB BKN080
      OVC120
     FM280500 12005KT P6SM BKN035 OVC050=



000
FTUS44 KHUN 280248 AAA
TAFMSL
TAF AMD
KMSL 280248Z 2803/2824 12006KT 6SM RA BR VCTS SCT035CB BKN080
      OVC120
     FM280500 12005KT P6SM BKN035 OVC050=



000
FTUS44 KHUN 280248 AAA
TAFMSL
TAF AMD
KMSL 280248Z 2803/2824 12006KT 6SM RA BR VCTS SCT035CB BKN080
      OVC120
     FM280500 12005KT P6SM BKN035 OVC050=



000
FTUS44 KHUN 272342
TAFMSL
TAF
KMSL 272342Z 2800/2824 12006KT 5SM -TSRA BR SCT035CB BKN080 OVC120
      TEMPO 2800/2803 3SM +TSRA BR BKN035CB
     FM280500 12004KT 5SM SHRA BR VCTS BKN035CB OVC050
     FM281800 12006KT P6SM BKN035 OVC050=



000
FTUS44 KHUN 272342
TAFHSV
TAF
KHSV 272342Z 2800/2824 12006KT 5SM -TSRA BR SCT035CB BKN080 OVC120
      TEMPO 2800/2803 3SM +TSRA BR BKN035CB
     FM280500 12004KT 5SM SHRA BR VCTS BKN035CB OVC050
     FM281800 12006KT P6SM BKN035 OVC050=



000
FTUS44 KHUN 272342
TAFHSV
TAF
KHSV 272342Z 2800/2824 12006KT 5SM -TSRA BR SCT035CB BKN080 OVC120
      TEMPO 2800/2803 3SM +TSRA BR BKN035CB
     FM280500 12004KT 5SM SHRA BR VCTS BKN035CB OVC050
     FM281800 12006KT P6SM BKN035 OVC050=



000
FTUS44 KHUN 272342
TAFMSL
TAF
KMSL 272342Z 2800/2824 12006KT 5SM -TSRA BR SCT035CB BKN080 OVC120
      TEMPO 2800/2803 3SM +TSRA BR BKN035CB
     FM280500 12004KT 5SM SHRA BR VCTS BKN035CB OVC050
     FM281800 12006KT P6SM BKN035 OVC050=



000
FTUS44 KHUN 271902 AAA
TAFHSV
TAF AMD
KHSV 271902Z 2719/2818 22005KT P6SM SCT025 BKN030
      TEMPO 2719/2720 VRB10G20KT P6SM -TSRA BKN030CB
     FM272000 23010KT P6SM BKN040
      TEMPO 2721/2801 5SM -TSRA BR BKN025CB
     FM280100 VRB03KT P6SM -SHRA BKN050
     FM280600 VRB03KT P6SM BKN250
     FM281000 14004KT 5SM BR BKN025 OVC040=



000
FTUS44 KHUN 271902 AAA
TAFHSV
TAF AMD
KHSV 271902Z 2719/2818 22005KT P6SM SCT025 BKN030
      TEMPO 2719/2720 VRB10G20KT P6SM -TSRA BKN030CB
     FM272000 23010KT P6SM BKN040
      TEMPO 2721/2801 5SM -TSRA BR BKN025CB
     FM280100 VRB03KT P6SM -SHRA BKN050
     FM280600 VRB03KT P6SM BKN250
     FM281000 14004KT 5SM BR BKN025 OVC040=



000
FTUS44 KHUN 271902 AAA
TAFHSV
TAF AMD
KHSV 271902Z 2719/2818 22005KT P6SM SCT025 BKN030
      TEMPO 2719/2720 VRB10G20KT P6SM -TSRA BKN030CB
     FM272000 23010KT P6SM BKN040
      TEMPO 2721/2801 5SM -TSRA BR BKN025CB
     FM280100 VRB03KT P6SM -SHRA BKN050
     FM280600 VRB03KT P6SM BKN250
     FM281000 14004KT 5SM BR BKN025 OVC040=



000
FTUS44 KHUN 271902 AAA
TAFHSV
TAF AMD
KHSV 271902Z 2719/2818 22005KT P6SM SCT025 BKN030
      TEMPO 2719/2720 VRB10G20KT P6SM -TSRA BKN030CB
     FM272000 23010KT P6SM BKN040
      TEMPO 2721/2801 5SM -TSRA BR BKN025CB
     FM280100 VRB03KT P6SM -SHRA BKN050
     FM280600 VRB03KT P6SM BKN250
     FM281000 14004KT 5SM BR BKN025 OVC040=



000
FTUS44 KHUN 271720
TAFHSV
TAF
KHSV 271720Z 2718/2818 22005KT P6SM BKN030
     FM272000 23010KT P6SM BKN040
      TEMPO 2721/2801 5SM -TSRA BR BKN025CB
     FM280100 VRB03KT P6SM -SHRA BKN050
     FM280600 VRB03KT P6SM BKN250
     FM281000 14004KT 5SM BR BKN025 OVC040=



000
FTUS44 KHUN 271720
TAFHSV
TAF
KHSV 271720Z 2718/2818 22005KT P6SM BKN030
     FM272000 23010KT P6SM BKN040
      TEMPO 2721/2801 5SM -TSRA BR BKN025CB
     FM280100 VRB03KT P6SM -SHRA BKN050
     FM280600 VRB03KT P6SM BKN250
     FM281000 14004KT 5SM BR BKN025 OVC040=



000
FTUS44 KHUN 271720
TAFHSV
TAF
KHSV 271720Z 2718/2818 22005KT P6SM BKN030
     FM272000 23010KT P6SM BKN040
      TEMPO 2721/2801 5SM -TSRA BR BKN025CB
     FM280100 VRB03KT P6SM -SHRA BKN050
     FM280600 VRB03KT P6SM BKN250
     FM281000 14004KT 5SM BR BKN025 OVC040=



000
FTUS44 KHUN 271720
TAFMSL
TAF
KMSL 271720Z 2718/2818 23005KT P6SM VCTS BKN025CB
     FM271900 24010KT P6SM BKN040
      TEMPO 2720/2724 5SM -TSRA BR BKN025CB
     FM280000 VRB03KT P6SM -SHRA BKN050
     FM280500 VRB03KT P6SM BKN250
     FM281000 VRB03KT 5SM BR BKN025 OVC040=



000
FTUS44 KHUN 271720
TAFMSL
TAF
KMSL 271720Z 2718/2818 23005KT P6SM VCTS BKN025CB
     FM271900 24010KT P6SM BKN040
      TEMPO 2720/2724 5SM -TSRA BR BKN025CB
     FM280000 VRB03KT P6SM -SHRA BKN050
     FM280500 VRB03KT P6SM BKN250
     FM281000 VRB03KT 5SM BR BKN025 OVC040=



000
FTUS44 KHUN 271720
TAFMSL
TAF
KMSL 271720Z 2718/2818 23005KT P6SM VCTS BKN025CB
     FM271900 24010KT P6SM BKN040
      TEMPO 2720/2724 5SM -TSRA BR BKN025CB
     FM280000 VRB03KT P6SM -SHRA BKN050
     FM280500 VRB03KT P6SM BKN250
     FM281000 VRB03KT 5SM BR BKN025 OVC040=



000
FTUS44 KHUN 271547 AAA
TAFMSL
TAF AMD
KMSL 271547Z 2716/2812 23005KT P6SM BKN025
      TEMPO 2716/2718 5SM TSRA BKN025CB
     FM271900 24010KT P6SM BKN040
      TEMPO 2720/2724 5SM -TSRA BR BKN025CB
     FM280000 VRB03KT P6SM BKN050
     FM280500 VRB03KT P6SM BKN250=



000
FTUS44 KHUN 271547 AAA
TAFMSL
TAF AMD
KMSL 271547Z 2716/2812 23005KT P6SM BKN025
      TEMPO 2716/2718 5SM TSRA BKN025CB
     FM271900 24010KT P6SM BKN040
      TEMPO 2720/2724 5SM -TSRA BR BKN025CB
     FM280000 VRB03KT P6SM BKN050
     FM280500 VRB03KT P6SM BKN250=



000
FTUS44 KHUN 271132
TAFMSL
TAF
KMSL 271132Z 2712/2812 17005KT P6SM OVC013
     FM271500 23005KT P6SM BKN025
     FM271900 24010KT P6SM BKN040
      TEMPO 2720/2724 5SM -TSRA BR BKN025CB
     FM280000 VRB03KT P6SM BKN050
     FM280500 VRB03KT P6SM BKN250=



000
FTUS44 KHUN 271132
TAFMSL
TAF
KMSL 271132Z 2712/2812 17005KT P6SM OVC013
     FM271500 23005KT P6SM BKN025
     FM271900 24010KT P6SM BKN040
      TEMPO 2720/2724 5SM -TSRA BR BKN025CB
     FM280000 VRB03KT P6SM BKN050
     FM280500 VRB03KT P6SM BKN250=



000
FTUS44 KHUN 271132
TAFHSV
TAF
KHSV 271132Z 2712/2812 17005KT 4SM BR OVC006
     FM271500 20005KT P6SM BKN015
     FM271800 22005KT P6SM BKN030
     FM272000 23010KT P6SM BKN040
      TEMPO 2721/2801 5SM -TSRA BR BKN025CB
     FM280100 VRB03KT P6SM BKN050
     FM280600 VRB03KT P6SM BKN250=



000
FTUS44 KHUN 271132
TAFMSL
TAF
KMSL 271132Z 2712/2812 17005KT P6SM OVC013
     FM271500 23005KT P6SM BKN025
     FM271900 24010KT P6SM BKN040
      TEMPO 2720/2724 5SM -TSRA BR BKN025CB
     FM280000 VRB03KT P6SM BKN050
     FM280500 VRB03KT P6SM BKN250=



000
FTUS44 KHUN 271132
TAFHSV
TAF
KHSV 271132Z 2712/2812 17005KT 4SM BR OVC006
     FM271500 20005KT P6SM BKN015
     FM271800 22005KT P6SM BKN030
     FM272000 23010KT P6SM BKN040
      TEMPO 2721/2801 5SM -TSRA BR BKN025CB
     FM280100 VRB03KT P6SM BKN050
     FM280600 VRB03KT P6SM BKN250=



000
FTUS44 KHUN 271132
TAFHSV
TAF
KHSV 271132Z 2712/2812 17005KT 4SM BR OVC006
     FM271500 20005KT P6SM BKN015
     FM271800 22005KT P6SM BKN030
     FM272000 23010KT P6SM BKN040
      TEMPO 2721/2801 5SM -TSRA BR BKN025CB
     FM280100 VRB03KT P6SM BKN050
     FM280600 VRB03KT P6SM BKN250=



000
FTUS44 KHUN 270934 AAC
TAFMSL
TAF AMD
KMSL 270934Z 2710/2806 15005KT P6SM OVC012
     FM271400 21005KT P6SM SCT015
     FM271600 24006KT P6SM BKN025
     FM271800 24008KT P6SM VCTS SCT035CB
     FM280100 19002KT P6SM BKN250=



000
FTUS44 KHUN 270934 AAC
TAFMSL
TAF AMD
KMSL 270934Z 2710/2806 15005KT P6SM OVC012
     FM271400 21005KT P6SM SCT015
     FM271600 24006KT P6SM BKN025
     FM271800 24008KT P6SM VCTS SCT035CB
     FM280100 19002KT P6SM BKN250=



000
FTUS44 KHUN 270934 AAC
TAFMSL
TAF AMD
KMSL 270934Z 2710/2806 15005KT P6SM OVC012
     FM271400 21005KT P6SM SCT015
     FM271600 24006KT P6SM BKN025
     FM271800 24008KT P6SM VCTS SCT035CB
     FM280100 19002KT P6SM BKN250=



000
FTUS44 KHUN 270758 AAB
TAFHSV
TAF AMD
KHSV 270758Z 2708/2806 18005KT P6SM BKN007
      TEMPO 2708/2712 SCT007
     FM271300 17004KT P6SM SCT015
     FM271600 19006KT P6SM BKN025
     FM271800 20008KT P6SM VCTS SCT035CB
     FM280200 18002KT P6SM BKN250=



000
FTUS44 KHUN 270758 AAB
TAFHSV
TAF AMD
KHSV 270758Z 2708/2806 18005KT P6SM BKN007
      TEMPO 2708/2712 SCT007
     FM271300 17004KT P6SM SCT015
     FM271600 19006KT P6SM BKN025
     FM271800 20008KT P6SM VCTS SCT035CB
     FM280200 18002KT P6SM BKN250=



000
FTUS44 KHUN 270758 AAB
TAFHSV
TAF AMD
KHSV 270758Z 2708/2806 18005KT P6SM BKN007
      TEMPO 2708/2712 SCT007
     FM271300 17004KT P6SM SCT015
     FM271600 19006KT P6SM BKN025
     FM271800 20008KT P6SM VCTS SCT035CB
     FM280200 18002KT P6SM BKN250=



000
FTUS44 KHUN 270646 AAB
TAFMSL
TAF AMD
KMSL 270646Z 2707/2806 18005KT P6SM BKN009
      TEMPO 2707/2711 SCT009
     FM271300 21005KT P6SM SCT015
     FM271600 24006KT P6SM BKN025
     FM271800 24008KT P6SM VCTS SCT035CB
     FM280100 19002KT P6SM BKN250=



000
FTUS44 KHUN 270646 AAB
TAFMSL
TAF AMD
KMSL 270646Z 2707/2806 18005KT P6SM BKN009
      TEMPO 2707/2711 SCT009
     FM271300 21005KT P6SM SCT015
     FM271600 24006KT P6SM BKN025
     FM271800 24008KT P6SM VCTS SCT035CB
     FM280100 19002KT P6SM BKN250=



000
FTUS44 KHUN 270646 AAB
TAFMSL
TAF AMD
KMSL 270646Z 2707/2806 18005KT P6SM BKN009
      TEMPO 2707/2711 SCT009
     FM271300 21005KT P6SM SCT015
     FM271600 24006KT P6SM BKN025
     FM271800 24008KT P6SM VCTS SCT035CB
     FM280100 19002KT P6SM BKN250=



000
FTUS44 KHUN 270646 AAB
TAFMSL
TAF AMD
KMSL 270646Z 2707/2806 18005KT P6SM BKN009
      TEMPO 2707/2711 SCT009
     FM271300 21005KT P6SM SCT015
     FM271600 24006KT P6SM BKN025
     FM271800 24008KT P6SM VCTS SCT035CB
     FM280100 19002KT P6SM BKN250=



000
FTUS44 KHUN 270645 AAA
TAFHSV
TAF AMD
KHSV 270645Z 2707/2806 13005KT P6SM BKN011
      TEMPO 2707/2711 SCT011
     FM271300 17004KT P6SM SCT015
     FM271600 19006KT P6SM BKN025
     FM271800 20008KT P6SM VCTS SCT035CB
     FM280200 18002KT P6SM BKN250=



000
FTUS44 KHUN 270645 AAA
TAFHSV
TAF AMD
KHSV 270645Z 2707/2806 13005KT P6SM BKN011
      TEMPO 2707/2711 SCT011
     FM271300 17004KT P6SM SCT015
     FM271600 19006KT P6SM BKN025
     FM271800 20008KT P6SM VCTS SCT035CB
     FM280200 18002KT P6SM BKN250=



000
FTUS44 KHUN 270645 AAA
TAFHSV
TAF AMD
KHSV 270645Z 2707/2806 13005KT P6SM BKN011
      TEMPO 2707/2711 SCT011
     FM271300 17004KT P6SM SCT015
     FM271600 19006KT P6SM BKN025
     FM271800 20008KT P6SM VCTS SCT035CB
     FM280200 18002KT P6SM BKN250=



000
FTUS44 KHUN 270645 AAA
TAFHSV
TAF AMD
KHSV 270645Z 2707/2806 13005KT P6SM BKN011
      TEMPO 2707/2711 SCT011
     FM271300 17004KT P6SM SCT015
     FM271600 19006KT P6SM BKN025
     FM271800 20008KT P6SM VCTS SCT035CB
     FM280200 18002KT P6SM BKN250=



000
FTUS44 KHUN 270617 AAA
TAFMSL
TAF AMD
KMSL 270617Z 2706/2806 18005KT P6SM BKN009
      TEMPO 2709/2713 SCT009
     FM271300 21005KT P6SM SCT015
     FM271600 24006KT P6SM BKN025
     FM271800 24008KT P6SM VCTS SCT035CB
     FM280100 19002KT P6SM BKN250=



000
FTUS44 KHUN 270617 AAA
TAFMSL
TAF AMD
KMSL 270617Z 2706/2806 18005KT P6SM BKN009
      TEMPO 2709/2713 SCT009
     FM271300 21005KT P6SM SCT015
     FM271600 24006KT P6SM BKN025
     FM271800 24008KT P6SM VCTS SCT035CB
     FM280100 19002KT P6SM BKN250=



000
FTUS44 KHUN 270617 AAA
TAFMSL
TAF AMD
KMSL 270617Z 2706/2806 18005KT P6SM BKN009
      TEMPO 2709/2713 SCT009
     FM271300 21005KT P6SM SCT015
     FM271600 24006KT P6SM BKN025
     FM271800 24008KT P6SM VCTS SCT035CB
     FM280100 19002KT P6SM BKN250=



000
FTUS44 KHUN 270617 AAA
TAFMSL
TAF AMD
KMSL 270617Z 2706/2806 18005KT P6SM BKN009
      TEMPO 2709/2713 SCT009
     FM271300 21005KT P6SM SCT015
     FM271600 24006KT P6SM BKN025
     FM271800 24008KT P6SM VCTS SCT035CB
     FM280100 19002KT P6SM BKN250=



000
FTUS44 KHUN 270526
TAFMSL
TAF
KMSL 270526Z 2706/2806 18003KT P6SM FEW070 SCT250
     FM271000 18003KT 5SM BR SCT008
     FM271300 21005KT P6SM SCT015
     FM271600 24006KT P6SM BKN025
     FM271800 24008KT P6SM VCTS SCT035CB
     FM280100 19002KT P6SM BKN250=



000
FTUS44 KHUN 270526
TAFHSV
TAF
KHSV 270526Z 2706/2806 16006KT P6SM FEW070 SCT250
     FM271000 15004KT 5SM BR SCT008
     FM271300 17004KT P6SM SCT015
     FM271600 19006KT P6SM BKN025
     FM271800 20008KT P6SM VCTS SCT035CB
     FM280200 18002KT P6SM BKN250=



000
FTUS44 KHUN 270526
TAFMSL
TAF
KMSL 270526Z 2706/2806 18003KT P6SM FEW070 SCT250
     FM271000 18003KT 5SM BR SCT008
     FM271300 21005KT P6SM SCT015
     FM271600 24006KT P6SM BKN025
     FM271800 24008KT P6SM VCTS SCT035CB
     FM280100 19002KT P6SM BKN250=



000
FTUS44 KHUN 270526
TAFHSV
TAF
KHSV 270526Z 2706/2806 16006KT P6SM FEW070 SCT250
     FM271000 15004KT 5SM BR SCT008
     FM271300 17004KT P6SM SCT015
     FM271600 19006KT P6SM BKN025
     FM271800 20008KT P6SM VCTS SCT035CB
     FM280200 18002KT P6SM BKN250=



000
FTUS44 KHUN 262320
TAFHSV
TAF
KHSV 262320Z 2700/2724 23010KT P6SM SCT030 BKN250
     FM270200 16006KT P6SM FEW070 SCT250
      TEMPO 2710/2713 5SM BR SCT008
     FM271300 17004KT P6SM SCT015
     FM271600 19006KT P6SM BKN025
     FM271800 20008KT P6SM SCT035 PROB30 2720/2724 4SM TSRA
      BKN035CB=



000
FTUS44 KHUN 262320
TAFMSL
TAF
KMSL 262320Z 2700/2724 22008KT P6SM FEW030 SCT250
     FM270200 18003KT P6SM FEW070 SCT250
      TEMPO 2710/2713 5SM BR SCT008
     FM271300 21005KT P6SM SCT015
     FM271600 24006KT P6SM BKN025
     FM271800 24008KT P6SM SCT035 PROB30 2720/2724 4SM TSRA
      BKN035CB=



000
FTUS44 KHUN 262320
TAFMSL
TAF
KMSL 262320Z 2700/2724 22008KT P6SM FEW030 SCT250
     FM270200 18003KT P6SM FEW070 SCT250
      TEMPO 2710/2713 5SM BR SCT008
     FM271300 21005KT P6SM SCT015
      TEMPO 2713/2716 BKN015
     FM271600 24006KT P6SM BKN025
     FM271800 24008KT P6SM SCT035 PROB30 2720/2724 4SM TSRA
      BKN035CB=



000
FTUS44 KHUN 261727
TAFHSV
TAF
KHSV 261727Z 2618/2718 20012KT P6SM SHRA VCTS BKN030CB OVC250
     FM270200 16006KT P6SM FEW070 SCT250
      TEMPO 2710/2713 5SM BR
     FM271300 20004KT P6SM VCSH SCT040 BKN120=



000
FTUS44 KHUN 261727
TAFMSL
TAF
KMSL 261727Z 2618/2718 18011KT P6SM VCSH BKN025 BKN250
     FM270100 19008KT P6SM FEW025 SCT250
      TEMPO 2710/2713 5SM BR
     FM271400 24005KT P6SM SCT040 BKN120=



000
FTUS44 KHUN 261727
TAFMSL
TAF
KMSL 261727Z 2618/2718 18011KT P6SM VCSH BKN025 BKN250
     FM270100 19008KT P6SM FEW025 SCT250
      TEMPO 2710/2713 5SM BR
     FM271400 24005KT P6SM SCT040 BKN120=



000
FTUS44 KHUN 261727
TAFHSV
TAF
KHSV 261727Z 2618/2718 20012KT P6SM SHRA VCTS BKN030CB OVC250
     FM270200 16006KT P6SM FEW070 SCT250
      TEMPO 2710/2713 5SM BR
     FM271300 20004KT P6SM VCSH SCT040 BKN120=



000
FTUS44 KHUN 261606 AAC
TAFHSV
TAF AMD
KHSV 261606Z 2616/2712 17013G18KT P6SM BKN025 OVC250
     FM261800 20010KT P6SM SHRA VCTS BKN025CB BKN150
     FM270200 16006KT P6SM FEW070 SCT250=



000
FTUS44 KHUN 261606 AAC
TAFHSV
TAF AMD
KHSV 261606Z 2616/2712 17013G18KT P6SM BKN025 OVC250
     FM261800 20010KT P6SM SHRA VCTS BKN025CB BKN150
     FM270200 16006KT P6SM FEW070 SCT250=



000
FTUS44 KHUN 261606 AAC
TAFHSV
TAF AMD
KHSV 261606Z 2616/2712 17013G18KT P6SM BKN025 OVC250
     FM261800 20010KT P6SM SHRA VCTS BKN025CB BKN150
     FM270200 16006KT P6SM FEW070 SCT250=



000
FTUS44 KHUN 261459 AAB
TAFHSV
TAF AMD
KHSV 261459Z 2615/2712 14012G18KT P6SM BKN015 OVC250
     FM261800 20010KT P6SM SHRA VCTS BKN025CB BKN150
     FM270200 16006KT P6SM FEW070 SCT250=



000
FTUS44 KHUN 261459 AAB
TAFHSV
TAF AMD
KHSV 261459Z 2615/2712 14012G18KT P6SM BKN015 OVC250
     FM261800 20010KT P6SM SHRA VCTS BKN025CB BKN150
     FM270200 16006KT P6SM FEW070 SCT250=



000
FTUS44 KHUN 261459 AAB
TAFHSV
TAF AMD
KHSV 261459Z 2615/2712 14012G18KT P6SM BKN015 OVC250
     FM261800 20010KT P6SM SHRA VCTS BKN025CB BKN150
     FM270200 16006KT P6SM FEW070 SCT250=



000
FTUS44 KHUN 261459 AAB
TAFHSV
TAF AMD
KHSV 261459Z 2615/2712 14012G18KT P6SM BKN015 OVC250
     FM261800 20010KT P6SM SHRA VCTS BKN025CB BKN150
     FM270200 16006KT P6SM FEW070 SCT250=



000
FTUS44 KHUN 261155 AAA
TAFHSV
TAF AMD
KHSV 261155Z 2612/2712 14006KT P6SM SCT005 BKN110
      TEMPO 2612/2614 BKN015
     FM261400 16008KT P6SM VCSH BKN025 BKN130
     FM261900 20010KT P6SM SHRA VCTS BKN025CB BKN150
     FM270200 16006KT P6SM FEW070 SCT250=



000
FTUS44 KHUN 261155 AAA
TAFHSV
TAF AMD
KHSV 261155Z 2612/2712 14006KT P6SM SCT005 BKN110
      TEMPO 2612/2614 BKN015
     FM261400 16008KT P6SM VCSH BKN025 BKN130
     FM261900 20010KT P6SM SHRA VCTS BKN025CB BKN150
     FM270200 16006KT P6SM FEW070 SCT250=



000
FTUS44 KHUN 261155 AAA
TAFMSL
TAF AMD
KMSL 261155Z 2612/2712 16008KT P6SM VCSH BKN025 BKN130
     FM261300 20010KT P6SM SHRA VCTS BKN025CB BKN150
     FM262000 16006KT P6SM FEW070 SCT250=



000
FTUS44 KHUN 261155 AAA
TAFMSL
TAF AMD
KMSL 261155Z 2612/2712 16008KT P6SM VCSH BKN025 BKN130
     FM261300 20010KT P6SM SHRA VCTS BKN025CB BKN150
     FM262000 16006KT P6SM FEW070 SCT250=



000
FTUS44 KHUN 261145
TAFHSV
TAF
KHSV 261145Z 2612/2712 14006KT P6SM SCT005 BKN110
      TEMPO 2612/2614 BKN015
     FM261400 16008KT P6SM VCSH BKN025 BKN130
     FM261900 20010KT P6SM SHRA VCTS BKN035CB BKN130
     FM270200 16006KT P6SM SCT250=



000
FTUS44 KHUN 261145
TAFMSL
TAF
KMSL 261145Z 2612/2712 16008KT P6SM VCSH BKN025 BKN130
     FM261300 20010KT P6SM SHRA VCTS BKN035CB BKN130
     FM262000 16006KT P6SM SCT250=



000
FTUS44 KHUN 260520
TAFMSL
TAF
KMSL 260520Z 2606/2706 11004KT P6SM BKN250
     FM260800 13008KT P6SM BKN025
      TEMPO 2609/2613 BKN008
     FM261300 17012G18KT P6SM VCTS BKN025CB OVC040
     FM261600 19012G20KT P6SM VCTS BKN030CB OVC050
     FM270000 18005KT P6SM SCT100 OVC250=



000
FTUS44 KHUN 260520
TAFMSL
TAF
KMSL 260520Z 2606/2706 11004KT P6SM BKN250
     FM260800 13008KT P6SM BKN025
      TEMPO 2609/2613 BKN008
     FM261300 17012G18KT P6SM VCTS BKN025CB OVC040
     FM261600 19012G20KT P6SM VCTS BKN030CB OVC050
     FM270000 18005KT P6SM SCT100 OVC250=



000
FTUS44 KHUN 260520
TAFHSV
TAF
KHSV 260520Z 2606/2706 12006KT P6SM FEW150 BKN250
     FM261000 13008KT P6SM SCT008 BKN025
      TEMPO 2610/2614 BKN008
     FM261600 17012G21KT P6SM VCTS BKN025CB OVC040
     FM261900 18012KT P6SM VCTS BKN030CB OVC050
     FM270000 17003KT P6SM SCT100 BKN250=



000
FTUS44 KHUN 260520
TAFHSV
TAF
KHSV 260520Z 2606/2706 12006KT P6SM FEW150 BKN250
     FM261000 13008KT P6SM SCT008 BKN025
      TEMPO 2610/2614 BKN008
     FM261600 17012G21KT P6SM VCTS BKN025CB OVC040
     FM261900 18012KT P6SM VCTS BKN030CB OVC050
     FM270000 17003KT P6SM SCT100 BKN250=



000
FTUS44 KHUN 260520
TAFHSV
TAF
KHSV 260520Z 2606/2706 12006KT P6SM FEW150 BKN250
     FM261000 13008KT P6SM SCT008 BKN025
      TEMPO 2610/2614 BKN008
     FM261600 17012G21KT P6SM VCTS BKN025CB OVC040
     FM261900 18012KT P6SM VCTS BKN030CB OVC050
     FM270000 17003KT P6SM SCT100 BKN250=



000
FTUS44 KHUN 260520
TAFMSL
TAF
KMSL 260520Z 2606/2706 11004KT P6SM BKN250
     FM260800 13008KT P6SM BKN025
      TEMPO 2609/2613 BKN008
     FM261300 17012G18KT P6SM VCTS BKN025CB OVC040
     FM261600 19012G20KT P6SM VCTS BKN030CB OVC050
     FM270000 18005KT P6SM SCT100 OVC250=



000
FTUS44 KHUN 260520
TAFHSV
TAF
KHSV 260520Z 2606/2706 12006KT P6SM FEW150 BKN250
     FM261000 13008KT P6SM SCT008 BKN025
      TEMPO 2610/2614 BKN008
     FM261600 17012G21KT P6SM VCTS BKN025CB OVC040
     FM261900 18012KT P6SM VCTS BKN030CB OVC050
     FM270000 17003KT P6SM SCT100 BKN250=



000
FTUS44 KHUN 260520
TAFMSL
TAF
KMSL 260520Z 2606/2706 11004KT P6SM BKN250
     FM260800 13008KT P6SM BKN025
      TEMPO 2609/2613 BKN008
     FM261300 17012G18KT P6SM VCTS BKN025CB OVC040
     FM261600 19012G20KT P6SM VCTS BKN030CB OVC050
     FM270000 18005KT P6SM SCT100 OVC250=



    US Dept of Commerce
    National Oceanic and Atmospheric Administration
    National Weather Service
    1325 East West Highway
    Silver Spring, MD 20910
    Page Author: NWS Internet Services Team
Disclaimer
Information Quality
Credits
Glossary
Privacy Policy
Freedom of Information Act (FOIA)
About Us
Career Opportunities